createdAt,value
2022-09-02T00:09:01.230Z,101549.03
2022-09-02T00:19:05.940Z,101547.47
2022-09-02T00:29:10.337Z,101535.47
2022-09-02T00:39:13.465Z,101531.22
2022-09-02T00:49:24.324Z,101532.19
2022-09-02T00:59:31.446Z,101527.91
2022-09-02T01:09:36.298Z,101517.59
2022-09-02T01:19:48.134Z,101518.50
2022-09-02T01:29:55.376Z,101516.00
2022-09-02T01:39:58.706Z,101507.34
2022-09-02T01:50:04.809Z,101500.53
2022-09-02T02:00:10.810Z,101501.47
2022-09-02T02:10:20.453Z,101504.13
2022-09-02T02:20:27.064Z,101496.38
2022-09-02T02:30:31.727Z,101490.28
2022-09-02T02:40:37.038Z,101489.41
2022-09-02T02:50:42.472Z,101484.22
2022-09-02T03:00:46.305Z,101482.50
2022-09-02T03:10:54.444Z,101474.75
2022-09-02T03:20:59.789Z,101472.16
2022-09-02T03:31:04.400Z,101473.06
2022-09-02T03:41:07.545Z,101467.06
2022-09-02T03:51:12.253Z,101459.28
2022-09-02T04:01:16.915Z,101448.97
2022-09-02T04:11:23.254Z,101449.06
2022-09-02T04:21:29.794Z,101443.06
2022-09-02T04:31:34.719Z,101440.56
2022-09-02T04:41:39.451Z,101436.28
2022-09-02T04:51:46.940Z,101437.97
2022-09-02T05:01:51.097Z,101443.03
2022-09-02T05:12:04.213Z,101442.91
2022-09-02T05:22:15.884Z,101446.22
2022-09-02T05:32:21.148Z,101438.28
2022-09-02T05:42:26.076Z,101437.19
2022-09-02T05:52:31.277Z,101443.00
2022-09-02T06:02:34.623Z,101441.91
2022-09-02T06:12:42.660Z,101434.69
2022-09-02T06:22:46.479Z,101431.78
2022-09-02T06:32:52.072Z,101421.88
2022-09-02T06:42:56.456Z,101418.78
2022-09-02T06:53:17.823Z,101422.41
2022-09-02T07:03:41.975Z,101417.50
2022-09-02T07:13:48.689Z,101405.38
2022-09-02T07:23:53.550Z,101404.34
2022-09-02T07:33:59.455Z,101399.09
2022-09-02T07:44:04.348Z,101405.38
2022-09-02T07:54:09.950Z,101397.75
2022-09-02T08:04:13.960Z,101399.53
2022-09-02T08:14:21.723Z,101395.22
2022-09-02T08:24:24.738Z,101382.16
2022-09-02T08:34:29.326Z,101371.88
2022-09-02T08:44:37.617Z,101368.88
2022-09-02T08:54:47.434Z,101372.53
2022-09-02T09:05:06.292Z,101370.72
2022-09-02T09:15:16.534Z,101377.09
2022-09-02T09:25:20.806Z,101373.19
2022-09-02T09:35:26.589Z,101358.94
2022-09-02T09:45:33.353Z,101352.31
2022-09-02T09:55:52.945Z,101343.75
2022-09-02T10:05:57.742Z,101332.38
2022-09-02T10:16:31.940Z,101333.16
2022-09-02T10:26:39.827Z,101316.72
2022-09-02T10:37:09.378Z,101304.88
2022-09-02T10:47:30.196Z,101294.66
2022-09-02T10:57:46.147Z,101276.59
2022-09-02T11:07:56.651Z,101281.19
2022-09-02T11:18:06.355Z,101264.28
2022-09-02T11:28:26.735Z,101240.69
2022-09-02T11:38:37.676Z,101230.84
2022-09-02T11:49:03.964Z,101217.91
2022-09-02T11:59:09.293Z,101210.91
2022-09-02T12:09:12.564Z,101210.88
2022-09-02T12:19:30.920Z,101197.88
2022-09-02T12:29:35.015Z,101190.81
2022-09-02T12:39:55.350Z,101178.19
2022-09-02T12:50:05.695Z,101167.72
2022-09-02T13:00:16.537Z,101155.66
2022-09-02T13:10:33.657Z,101147.00
2022-09-02T13:21:01.323Z,101143.16
2022-09-02T13:31:23.852Z,101147.75
2022-09-02T13:41:33.070Z,101134.44
2022-09-02T13:51:45.438Z,101128.81
2022-09-02T14:01:49.457Z,101106.72
2022-09-02T14:11:56.684Z,101102.81
2022-09-02T14:22:02.395Z,101088.16
2022-09-02T14:32:13.732Z,101074.22
2022-09-02T14:42:17.407Z,101056.28
2022-09-02T14:52:26.612Z,101049.22
2022-09-02T15:02:35.206Z,101048.41
2022-09-02T15:12:49.206Z,101028.19
2022-09-02T15:22:53.308Z,101025.03
2022-09-02T15:32:58.422Z,101024.75
2022-09-02T15:43:01.737Z,101017.84
2022-09-02T15:53:06.414Z,101011.16
2022-09-02T16:03:10.930Z,101006.91
2022-09-02T16:13:16.556Z,100987.38
2022-09-02T16:23:19.783Z,100975.91
2022-09-02T16:33:24.325Z,100970.19
2022-09-02T16:43:27.480Z,100971.13
2022-09-02T16:53:33.001Z,100964.47
2022-09-02T17:03:37.916Z,100965.19
2022-09-02T17:13:42.529Z,100966.53
2022-09-02T17:23:45.890Z,100960.19
2022-09-02T17:33:50.565Z,100962.19
2022-09-02T17:43:54.037Z,100959.59
2022-09-02T17:53:58.329Z,100965.06
2022-09-02T18:04:07.432Z,100971.69
2022-09-02T18:14:25.431Z,100963.47
2022-09-02T18:24:51.061Z,100968.09
2022-09-02T18:35:06.135Z,100967.19
2022-09-02T18:45:21.364Z,100976.72
2022-09-02T18:55:34.898Z,100976.88
2022-09-02T19:05:38.567Z,100993.44
2022-09-02T19:15:43.688Z,101002.22
2022-09-02T19:25:47.189Z,100997.31
2022-09-02T19:35:52.224Z,100995.47
2022-09-02T19:45:56.066Z,100998.22
2022-09-02T19:56:01.483Z,101008.22
2022-09-02T20:06:06.049Z,101011.09
2022-09-02T20:16:18.430Z,101013.94
2022-09-02T20:26:36.718Z,100999.78
2022-09-02T20:36:48.930Z,101004.00
2022-09-02T20:47:07.215Z,100998.63
2022-09-02T20:57:27.271Z,101000.84
2022-09-02T21:07:35.647Z,100993.69
2022-09-02T21:17:48.731Z,100993.28
2022-09-02T21:27:56.908Z,100987.44
2022-09-02T21:38:11.281Z,100984.16
2022-09-02T21:48:23.800Z,100993.53
2022-09-02T21:58:52.605Z,100992.75
2022-09-02T22:09:06.706Z,100992.81
2022-09-02T22:19:11.175Z,100983.84
2022-09-02T22:29:20.089Z,100988.78
2022-09-02T22:39:33.990Z,100993.81
2022-09-02T22:49:59.455Z,100988.88
2022-09-02T23:00:08.373Z,100978.16
2022-09-02T23:10:23.630Z,100971.81
2022-09-02T23:20:44.702Z,100967.19
2022-09-02T23:31:01.296Z,100958.34
2022-09-02T23:41:09.152Z,100963.25
2022-09-02T23:51:19.193Z,100959.28
